createdAt,value
2019-02-11T00:01:37.580Z,1.50
2019-02-11T00:02:37.619Z,1.60
2019-02-11T00:03:38.287Z,1.50
2019-02-11T00:04:37.896Z,1.20
2019-02-11T00:05:41.483Z,2.58
2019-02-11T00:06:42.020Z,1.75
2019-02-11T00:08:46.630Z,3.33
2019-02-11T00:09:48.439Z,2.20
2019-02-11T00:10:52.180Z,1.57
2019-02-11T00:11:56.238Z,1.75
2019-02-11T00:13:01.675Z,2.10
2019-02-11T00:14:02.154Z,2.15
2019-02-11T00:15:05.856Z,1.25
2019-02-11T00:16:09.376Z,1.15
2019-02-11T00:16:59.946Z,1.17
2019-02-11T00:18:06.870Z,1.35
2019-02-11T00:19:07.251Z,2.15
2019-02-11T00:20:11.315Z,1.17
2019-02-11T00:21:14.793Z,2.17
2019-02-11T00:22:18.313Z,1.35
2019-02-11T00:23:17.932Z,1.15
2019-02-11T00:24:18.534Z,1.65
2019-02-11T00:25:18.089Z,1.32
2019-02-11T00:26:17.892Z,0.88
2019-02-11T00:27:18.413Z,1.00
2019-02-11T00:28:18.874Z,1.62
2019-02-11T00:29:18.618Z,1.47
2019-02-11T00:30:18.244Z,2.27
2019-02-11T00:31:17.885Z,1.42
2019-02-11T00:32:18.410Z,0.85
2019-02-11T00:33:18.912Z,1.57
2019-02-11T00:34:19.414Z,1.85
2019-02-11T00:35:19.888Z,1.32
2019-02-11T00:36:20.731Z,1.45
2019-02-11T00:37:24.124Z,2.15
2019-02-11T00:38:23.714Z,1.17
2019-02-11T00:39:24.157Z,2.27
2019-02-11T00:40:23.837Z,2.25
2019-02-11T00:42:27.951Z,2.50
2019-02-11T00:43:28.477Z,1.10
2019-02-11T00:44:28.914Z,1.60
2019-02-11T00:45:31.557Z,2.30
2019-02-11T00:46:32.067Z,1.00
2019-02-11T00:47:32.584Z,3.15
2019-02-11T00:48:35.128Z,1.70
2019-02-11T00:49:38.799Z,2.37
2019-02-11T00:50:42.476Z,1.02
2019-02-11T00:51:45.131Z,1.98
2019-02-11T00:52:46.670Z,1.12
2019-02-11T00:54:50.238Z,1.60
2019-02-11T00:55:40.806Z,1.20
2019-02-11T00:56:28.439Z,1.45
2019-02-11T00:57:28.203Z,1.05
2019-02-11T00:58:15.695Z,1.00
2019-02-11T00:59:03.206Z,0.85
2019-02-11T00:59:50.703Z,1.52
2019-02-11T01:00:38.279Z,2.75
2019-02-11T01:01:25.815Z,1.00
2019-02-11T01:02:13.467Z,0.98
2019-02-11T01:03:13.124Z,3.50
2019-02-11T01:04:16.554Z,1.40
2019-02-11T01:05:07.086Z,1.00
2019-02-11T01:06:06.635Z,1.62
2019-02-11T01:07:09.921Z,1.40
2019-02-11T01:07:57.419Z,1.15
2019-02-11T01:09:05.246Z,0.88
2019-02-11T01:09:52.759Z,0.80
2019-02-11T01:10:40.352Z,1.87
2019-02-11T01:11:47.308Z,1.55
2019-02-11T01:12:46.985Z,1.02
2019-02-11T01:13:51.615Z,3.35
2019-02-11T01:14:39.462Z,1.00
2019-02-11T01:15:46.363Z,1.05
2019-02-11T01:16:46.328Z,1.45
2019-02-11T01:17:49.775Z,1.60
2019-02-11T01:18:49.284Z,1.92
2019-02-11T01:19:48.934Z,1.52
2019-02-11T01:20:48.607Z,1.85
2019-02-11T01:22:52.456Z,3.45
2019-02-11T01:23:59.409Z,1.75
2019-02-11T01:25:00.675Z,1.30
2019-02-11T01:26:01.756Z,2.75
2019-02-11T01:27:01.500Z,2.35
2019-02-11T01:28:02.032Z,4.58
2019-02-11T01:29:02.536Z,1.07
2019-02-11T01:30:02.195Z,2.47
2019-02-11T01:31:02.655Z,3.58
2019-02-11T01:32:03.139Z,2.87
2019-02-11T01:33:07.676Z,2.27
2019-02-11T01:34:07.982Z,2.83
2019-02-11T01:36:13.255Z,1.75
2019-02-11T01:37:17.467Z,3.25
2019-02-11T01:38:17.563Z,1.62
2019-02-11T01:39:18.204Z,3.52
2019-02-11T01:41:24.276Z,3.85
2019-02-11T01:42:23.855Z,4.05
2019-02-11T01:43:24.345Z,1.65
2019-02-11T01:44:24.839Z,2.47
2019-02-11T01:45:25.308Z,1.05
2019-02-11T01:46:24.815Z,2.30
2019-02-11T01:48:28.038Z,4.05
2019-02-11T01:49:27.599Z,3.00
2019-02-11T01:50:28.224Z,4.60
2019-02-11T01:51:28.765Z,2.85
2019-02-11T01:52:28.453Z,3.17
2019-02-11T01:53:29.049Z,3.27
2019-02-11T01:54:28.559Z,4.20
2019-02-11T01:55:26.748Z,3.72
2019-02-11T01:56:33.783Z,4.78
2019-02-11T01:57:31.865Z,3.92
2019-02-11T01:58:42.358Z,5.15
2019-02-11T01:59:49.573Z,6.97
2019-02-11T02:00:51.008Z,4.10
2019-02-11T02:02:58.024Z,5.42
2019-02-11T02:03:57.709Z,4.85
2019-02-11T02:04:57.384Z,5.78
2019-02-11T02:05:57.943Z,3.17
2019-02-11T02:06:57.467Z,4.08
2019-02-11T02:07:57.112Z,5.58
2019-02-11T02:08:56.837Z,7.22
2019-02-11T02:09:58.382Z,3.45
2019-02-11T02:10:59.555Z,5.90
2019-02-11T02:11:59.525Z,5.00
2019-02-11T02:13:00.039Z,3.10
2019-02-11T02:14:00.207Z,5.72
2019-02-11T02:15:03.359Z,5.40
2019-02-11T02:16:05.945Z,6.33
2019-02-11T02:18:13.327Z,5.70
2019-02-11T02:19:17.052Z,6.05
2019-02-11T02:20:17.613Z,5.55
2019-02-11T02:21:18.338Z,4.08
2019-02-11T02:22:18.745Z,5.60
2019-02-11T02:23:22.337Z,7.50
2019-02-11T02:24:22.846Z,6.08
2019-02-11T02:25:22.455Z,5.28
2019-02-11T02:26:26.422Z,4.15
2019-02-11T02:27:26.559Z,4.47
2019-02-11T02:28:27.003Z,5.17
2019-02-11T02:29:26.588Z,5.80
2019-02-11T02:30:26.129Z,5.30
2019-02-11T02:31:25.811Z,3.30
2019-02-11T02:32:29.922Z,4.30
2019-02-11T02:33:33.183Z,6.05
2019-02-11T02:34:33.838Z,6.62
2019-02-11T02:35:33.473Z,6.83
2019-02-11T02:36:33.041Z,5.95
2019-02-11T02:37:35.657Z,5.12
2019-02-11T02:38:35.656Z,6.33
2019-02-11T02:39:36.229Z,6.80
2019-02-11T02:40:39.542Z,7.92
2019-02-11T02:41:40.127Z,4.95
2019-02-11T02:42:40.660Z,5.60
2019-02-11T02:43:41.370Z,5.22
2019-02-11T02:44:41.958Z,5.42
2019-02-11T02:45:41.833Z,3.20
2019-02-11T02:46:42.142Z,8.50
2019-02-11T02:47:41.818Z,5.42
2019-02-11T02:48:42.624Z,6.28
2019-02-11T02:49:46.283Z,5.95
2019-02-11T02:50:50.557Z,7.30
2019-02-11T02:51:51.951Z,7.65
2019-02-11T02:52:53.154Z,5.30
2019-02-11T02:53:53.261Z,5.70
2019-02-11T02:54:40.793Z,4.62
2019-02-11T02:55:47.725Z,8.73
2019-02-11T02:56:47.883Z,5.45
2019-02-11T02:57:48.357Z,10.28
2019-02-11T02:58:46.401Z,7.50
2019-02-11T02:59:53.384Z,4.35
2019-02-11T03:00:52.963Z,5.87
2019-02-11T03:01:52.478Z,6.80
2019-02-11T03:02:52.095Z,7.35
2019-02-11T03:03:51.716Z,5.85
2019-02-11T03:04:52.125Z,9.30
2019-02-11T03:05:53.106Z,4.45
2019-02-11T03:07:59.702Z,6.45
2019-02-11T03:09:00.007Z,10.05
2019-02-11T03:10:00.612Z,10.08
2019-02-11T03:11:01.640Z,7.65
2019-02-11T03:12:04.532Z,5.58
2019-02-11T03:12:52.083Z,7.47
2019-02-11T03:13:39.876Z,10.43
2019-02-11T03:14:27.363Z,6.65
2019-02-11T03:15:34.326Z,6.83
2019-02-11T03:16:33.959Z,8.25
2019-02-11T03:17:33.528Z,7.50
2019-02-11T03:19:34.484Z,7.62
2019-02-11T03:20:37.199Z,10.63
2019-02-11T03:21:24.667Z,6.33
2019-02-11T03:22:31.659Z,6.17
2019-02-11T03:23:31.515Z,5.92
2019-02-11T03:24:35.155Z,5.65
2019-02-11T03:27:16.511Z,5.50
2019-02-11T03:28:16.972Z,5.97
2019-02-11T03:29:19.563Z,5.08
2019-02-11T03:30:20.039Z,6.05
2019-02-11T03:31:20.815Z,6.58
2019-02-11T03:32:23.845Z,6.60
2019-02-11T03:33:24.213Z,7.92
2019-02-11T03:34:25.198Z,6.28
2019-02-11T03:35:29.747Z,8.68
2019-02-11T03:36:20.780Z,4.72
2019-02-11T03:37:08.430Z,6.90
2019-02-11T03:41:08.131Z,6.65
2019-02-11T03:42:08.508Z,9.10
2019-02-11T03:43:12.419Z,7.62
2019-02-11T03:44:15.148Z,7.30
2019-02-11T03:45:16.101Z,7.75
2019-02-11T03:46:20.002Z,6.33
2019-02-11T03:47:23.140Z,5.42
2019-02-11T03:48:22.766Z,5.92
2019-02-11T03:49:26.310Z,11.93
2019-02-11T03:50:13.814Z,7.22
2019-02-11T03:51:20.855Z,9.25
2019-02-11T03:52:20.893Z,10.08
2019-02-11T03:53:20.635Z,9.53
2019-02-11T03:54:20.178Z,9.65
2019-02-11T03:55:19.762Z,7.12
2019-02-11T03:56:20.265Z,9.40
2019-02-11T03:57:19.808Z,6.70
2019-02-11T03:58:20.412Z,8.90
2019-02-11T03:59:20.008Z,15.60
2019-02-11T04:00:23.541Z,11.78
2019-02-11T04:02:29.747Z,12.28
2019-02-11T04:03:29.458Z,13.18
2019-02-11T04:04:29.882Z,12.43
2019-02-11T04:05:30.358Z,11.28
2019-02-11T04:06:29.983Z,11.33
2019-02-11T04:07:30.379Z,11.75
2019-02-11T04:08:29.901Z,12.30
2019-02-11T04:09:29.437Z,17.17
2019-02-11T04:10:28.980Z,12.33
2019-02-11T04:11:29.470Z,12.65
2019-02-11T04:12:19.956Z,15.68
2019-02-11T04:13:20.477Z,14.05
2019-02-11T04:14:25.102Z,16.45
2019-02-11T04:15:21.616Z,12.47
2019-02-11T04:16:21.802Z,15.85
2019-02-11T04:17:24.964Z,14.25
2019-02-11T04:18:25.541Z,16.02
2019-02-11T04:19:28.182Z,18.27
2019-02-11T04:20:27.861Z,13.28
2019-02-11T04:21:28.324Z,14.93
2019-02-11T04:22:28.891Z,15.98
2019-02-11T04:23:16.428Z,18.48
2019-02-11T04:24:23.631Z,18.67
2019-02-11T04:25:27.022Z,17.25
2019-02-11T04:26:26.972Z,12.45
2019-02-11T04:27:33.558Z,10.32
2019-02-11T04:28:33.356Z,13.80
2019-02-11T04:29:33.686Z,15.78
2019-02-11T04:30:35.966Z,12.80
2019-02-11T04:31:38.460Z,13.75
2019-02-11T04:32:39.014Z,13.75
2019-02-11T04:33:39.467Z,15.23
2019-02-11T04:34:42.737Z,16.60
2019-02-11T04:35:42.509Z,17.20
2019-02-11T04:36:46.093Z,17.15
2019-02-11T04:37:48.636Z,15.35
2019-02-11T04:38:48.199Z,21.82
2019-02-11T04:39:48.810Z,15.83
2019-02-11T04:40:48.449Z,12.05
2019-02-11T04:41:48.070Z,18.10
2019-02-11T04:42:50.577Z,20.17
2019-02-11T04:43:51.075Z,16.85
2019-02-11T04:44:50.624Z,13.55
2019-02-11T04:45:50.110Z,14.78
2019-02-11T04:46:49.769Z,11.68
2019-02-11T04:47:49.413Z,11.63
2019-02-11T04:48:49.934Z,16.85
2019-02-11T04:49:49.689Z,19.25
2019-02-11T04:50:49.307Z,15.68
2019-02-11T04:51:49.932Z,17.40
2019-02-11T04:52:50.366Z,13.00
2019-02-11T04:53:40.925Z,14.38
2019-02-11T04:54:50.216Z,16.45
2019-02-11T04:55:37.899Z,12.10
2019-02-11T04:56:45.000Z,13.18
2019-02-11T04:58:48.545Z,16.40
2019-02-11T04:59:55.525Z,17.05
2019-02-11T05:00:55.600Z,12.03
2019-02-11T05:01:56.088Z,15.78
2019-02-11T05:02:56.398Z,18.52
2019-02-11T05:03:55.891Z,15.15
2019-02-11T05:04:55.592Z,13.45
2019-02-11T05:05:56.047Z,14.13
2019-02-11T05:06:54.226Z,17.60
2019-02-11T05:08:01.212Z,10.68
2019-02-11T05:09:00.827Z,12.10
2019-02-11T05:10:00.478Z,14.13
2019-02-11T05:11:00.957Z,13.65
2019-02-11T05:12:06.148Z,12.05
2019-02-11T05:13:15.600Z,15.13
2019-02-11T05:14:15.694Z,9.23
2019-02-11T05:15:16.256Z,14.87
2019-02-11T05:16:15.847Z,11.97
2019-02-11T05:17:16.335Z,15.55
2019-02-11T05:18:17.147Z,14.85
2019-02-11T05:19:17.635Z,17.23
2019-02-11T05:20:18.057Z,15.03
2019-02-11T05:21:18.630Z,13.53
2019-02-11T05:22:20.170Z,26.05
2019-02-11T05:23:19.927Z,17.40
2019-02-11T05:24:20.357Z,16.30
2019-02-11T05:25:20.174Z,18.35
2019-02-11T05:27:25.443Z,16.65
2019-02-11T05:28:25.902Z,16.87
2019-02-11T05:29:26.398Z,18.07
2019-02-11T05:30:26.874Z,12.68
2019-02-11T05:31:26.495Z,12.55
2019-02-11T05:32:26.906Z,13.75
2019-02-11T05:33:27.323Z,15.45
2019-02-11T05:34:27.912Z,13.50
2019-02-11T05:35:27.379Z,19.48
2019-02-11T05:36:27.848Z,17.80
2019-02-11T05:37:28.477Z,11.10
2019-02-11T05:38:28.821Z,15.85
2019-02-11T05:39:28.490Z,13.32
2019-02-11T05:40:28.995Z,15.13
2019-02-11T05:41:29.395Z,16.25
2019-02-11T05:42:32.912Z,19.92
2019-02-11T05:43:32.467Z,15.60
2019-02-11T05:44:32.041Z,14.60
2019-02-11T05:45:31.594Z,16.45
2019-02-11T05:46:31.337Z,17.12
2019-02-11T05:47:31.807Z,16.15
2019-02-11T05:48:31.324Z,13.03
2019-02-11T05:49:35.576Z,11.85
2019-02-11T05:50:35.714Z,15.78
2019-02-11T05:51:35.371Z,12.13
2019-02-11T05:52:35.000Z,16.25
2019-02-11T05:53:38.522Z,10.93
2019-02-11T05:54:38.195Z,16.05
2019-02-11T05:55:38.635Z,12.10
2019-02-11T05:56:40.208Z,14.07
2019-02-11T05:57:40.917Z,22.73
2019-02-11T05:58:41.249Z,15.48
2019-02-11T05:59:41.757Z,20.62
2019-02-11T06:00:42.141Z,19.75
2019-02-11T06:01:41.765Z,14.87
2019-02-11T06:02:42.197Z,22.20
2019-02-11T06:03:41.762Z,18.10
2019-02-11T06:04:42.233Z,18.37
2019-02-11T06:05:42.762Z,13.50
2019-02-11T06:06:43.203Z,12.25
2019-02-11T06:07:43.578Z,17.48
2019-02-11T06:08:41.622Z,23.18
2019-02-11T06:09:48.675Z,15.58
2019-02-11T06:10:48.252Z,14.10
2019-02-11T06:11:47.815Z,12.88
2019-02-11T06:12:47.310Z,17.05
2019-02-11T06:13:46.790Z,12.30
2019-02-11T06:14:46.327Z,14.38
2019-02-11T06:15:48.117Z,13.00
2019-02-11T06:16:48.448Z,12.70
2019-02-11T06:17:49.352Z,15.90
2019-02-11T06:18:49.547Z,13.22
2019-02-11T06:19:50.008Z,11.38
2019-02-11T06:20:49.704Z,17.87
2019-02-11T06:21:49.305Z,12.75
2019-02-11T06:22:49.128Z,16.17
2019-02-11T06:23:48.869Z,18.37
2019-02-11T06:24:49.376Z,12.35
2019-02-11T06:25:48.886Z,15.20
2019-02-11T06:26:49.892Z,11.73
2019-02-11T06:27:52.996Z,15.32
2019-02-11T06:28:53.572Z,17.05
2019-02-11T06:29:54.135Z,11.15
2019-02-11T06:30:53.787Z,12.13
2019-02-11T06:31:53.536Z,14.87
2019-02-11T06:32:54.069Z,16.35
2019-02-11T06:33:54.554Z,16.23
2019-02-11T06:34:54.068Z,14.93
2019-02-11T06:35:56.683Z,17.98
2019-02-11T06:36:54.766Z,12.55
2019-02-11T06:38:01.703Z,16.30
2019-02-11T06:40:04.028Z,15.38
2019-02-11T06:41:03.686Z,19.15
2019-02-11T06:42:04.038Z,13.35
2019-02-11T06:42:52.191Z,14.20
2019-02-11T06:43:51.997Z,11.30
2019-02-11T06:44:51.539Z,16.82
2019-02-11T06:45:52.052Z,22.73
2019-02-11T06:46:55.335Z,12.90
2019-02-11T06:47:55.865Z,13.65
2019-02-11T06:48:55.571Z,13.72
2019-02-11T06:49:58.334Z,13.08
2019-02-11T06:50:59.065Z,11.35
2019-02-11T06:51:59.601Z,14.43
2019-02-11T06:53:00.161Z,14.78
2019-02-11T06:54:00.732Z,12.82
2019-02-11T06:55:01.230Z,14.18
2019-02-11T06:56:01.617Z,13.20
2019-02-11T06:56:49.244Z,11.97
2019-02-11T06:57:49.597Z,16.55
2019-02-11T06:58:50.092Z,12.25
2019-02-11T06:59:50.664Z,14.13
2019-02-11T07:00:50.201Z,12.30
2019-02-11T07:01:49.710Z,15.13
2019-02-11T07:02:49.442Z,14.35
2019-02-11T07:03:49.956Z,15.20
2019-02-11T07:04:49.728Z,13.20
2019-02-11T07:05:52.281Z,15.28
2019-02-11T07:06:52.724Z,16.77
2019-02-11T07:07:53.326Z,13.22
2019-02-11T07:08:52.851Z,20.92
2019-02-11T07:09:52.511Z,17.40
2019-02-11T07:10:55.757Z,20.48
2019-02-11T07:11:54.627Z,11.18
2019-02-11T07:12:54.212Z,15.28
2019-02-11T07:13:53.870Z,17.48
2019-02-11T07:14:53.465Z,16.50
2019-02-11T07:15:56.667Z,17.50
2019-02-11T07:16:56.769Z,19.07
2019-02-11T07:17:44.523Z,12.63
2019-02-11T07:18:51.620Z,15.50
2019-02-11T07:19:52.195Z,16.95
2019-02-11T07:20:52.675Z,15.58
2019-02-11T07:21:52.316Z,21.48
2019-02-11T07:22:54.942Z,20.25
2019-02-11T07:23:54.675Z,17.95
2019-02-11T07:24:55.206Z,19.80
2019-02-11T07:25:55.019Z,15.13
2019-02-11T07:26:55.492Z,18.55
2019-02-11T07:27:55.957Z,14.87
2019-02-11T07:28:55.527Z,15.00
2019-02-11T07:29:55.990Z,20.92
2019-02-11T07:30:56.349Z,13.13
2019-02-11T07:31:59.724Z,19.20
2019-02-11T07:32:59.502Z,14.05
2019-02-11T07:34:00.034Z,12.45
2019-02-11T07:35:00.059Z,20.10
2019-02-11T07:36:03.295Z,17.77
2019-02-11T07:37:03.716Z,15.85
2019-02-11T07:38:04.219Z,15.53
2019-02-11T07:39:04.265Z,16.40
2019-02-11T07:40:04.432Z,23.47
2019-02-11T07:41:04.948Z,15.72
2019-02-11T07:42:26.744Z,18.75
2019-02-11T07:43:34.126Z,19.12
2019-02-11T07:44:38.904Z,16.80
2019-02-11T07:45:46.553Z,18.48
2019-02-11T07:46:51.205Z,13.10
2019-02-11T07:47:51.341Z,19.27
2019-02-11T07:48:51.772Z,14.45
2019-02-11T07:49:52.258Z,19.60
2019-02-11T07:50:52.795Z,14.73
2019-02-11T07:51:53.232Z,23.25
2019-02-11T07:52:53.001Z,16.75
2019-02-11T07:53:53.294Z,16.93
2019-02-11T07:54:53.930Z,17.50
2019-02-11T07:55:54.432Z,17.65
2019-02-11T07:56:54.977Z,14.80
2019-02-11T07:57:56.509Z,13.80
2019-02-11T07:58:56.055Z,19.02
2019-02-11T08:00:59.164Z,22.07
2019-02-11T08:01:58.765Z,12.82
2019-02-11T08:02:59.140Z,20.60
2019-02-11T08:04:00.602Z,20.12
2019-02-11T08:05:00.712Z,25.17
2019-02-11T08:06:03.686Z,21.60
2019-02-11T08:06:51.283Z,16.15
2019-02-11T08:07:52.795Z,17.87
2019-02-11T08:08:55.480Z,14.30
2019-02-11T08:09:55.998Z,12.28
2019-02-11T08:10:56.480Z,13.50
2019-02-11T08:11:56.924Z,14.78
2019-02-11T08:12:56.676Z,17.60
2019-02-11T08:13:59.276Z,18.70
2019-02-11T08:14:58.955Z,17.42
2019-02-11T08:16:56.988Z,24.10
2019-02-11T08:17:58.274Z,16.55
2019-02-11T08:18:58.265Z,14.68
2019-02-11T08:20:01.793Z,20.20
2019-02-11T08:20:49.327Z,17.62
2019-02-11T08:21:49.884Z,15.50
2019-02-11T08:22:50.273Z,19.27
2019-02-11T08:25:13.157Z,15.53
2019-02-11T08:26:18.344Z,15.83
2019-02-11T08:27:06.626Z,21.00
2019-02-11T08:29:02.687Z,14.30
2019-02-11T08:29:46.207Z,18.65
2019-02-11T08:30:46.553Z,16.07
2019-02-11T08:31:47.083Z,22.02
2019-02-11T08:32:47.556Z,21.85
2019-02-11T08:33:48.113Z,14.53
2019-02-11T08:34:48.566Z,12.65
2019-02-11T08:35:49.009Z,23.87
2019-02-11T08:36:49.373Z,16.48
2019-02-11T08:37:49.995Z,16.73
2019-02-11T08:38:50.812Z,21.02
2019-02-11T08:39:54.817Z,14.80
2019-02-11T08:40:54.929Z,21.17
2019-02-11T08:42:01.750Z,21.48
2019-02-11T08:44:04.448Z,15.80
2019-02-11T08:45:05.998Z,12.55
2019-02-11T08:46:10.029Z,17.57
2019-02-11T08:47:10.152Z,15.55
2019-02-11T08:48:12.832Z,17.85
2019-02-11T08:49:14.226Z,17.23
2019-02-11T08:50:13.889Z,13.83
2019-02-11T08:51:13.497Z,20.37
2019-02-11T08:52:12.989Z,15.72
2019-02-11T08:53:12.652Z,16.73
2019-02-11T08:54:13.106Z,19.35
2019-02-11T08:55:13.572Z,19.65
2019-02-11T08:56:13.218Z,17.00
2019-02-11T08:57:15.911Z,12.85
2019-02-11T08:58:16.430Z,16.75
2019-02-11T08:59:16.999Z,14.85
2019-02-11T09:01:18.687Z,14.20
2019-02-11T09:02:25.716Z,17.25
2019-02-11T09:03:25.484Z,14.93
2019-02-11T09:04:28.992Z,15.53
2019-02-11T09:05:31.508Z,16.30
2019-02-11T09:06:32.103Z,16.17
2019-02-11T09:07:35.822Z,11.03
2019-02-11T09:08:36.490Z,14.90
2019-02-11T09:09:36.896Z,17.23
2019-02-11T09:10:37.413Z,12.33
2019-02-11T09:11:37.727Z,14.00
2019-02-11T09:12:38.619Z,13.10
2019-02-11T09:13:38.700Z,14.50
2019-02-11T09:14:42.217Z,13.80
2019-02-11T09:15:42.644Z,16.65
2019-02-11T09:16:42.297Z,15.38
2019-02-11T09:19:04.675Z,12.58
2019-02-11T09:20:05.155Z,18.12
2019-02-11T09:21:05.616Z,17.35
2019-02-11T09:22:07.802Z,12.78
2019-02-11T09:23:08.147Z,18.67
2019-02-11T09:24:11.451Z,13.90
2019-02-11T09:25:11.091Z,17.00
2019-02-11T09:26:09.161Z,12.45
2019-02-11T09:27:16.226Z,15.18
2019-02-11T09:28:16.922Z,14.87
2019-02-11T09:29:17.198Z,18.48
2019-02-11T09:30:16.862Z,12.40
2019-02-11T09:31:14.991Z,18.87
2019-02-11T09:32:21.968Z,14.47
2019-02-11T09:33:21.935Z,15.75
2019-02-11T09:34:22.416Z,12.85
2019-02-11T09:35:22.113Z,12.25
2019-02-11T09:36:21.699Z,11.18
2019-02-11T09:38:24.935Z,14.95
2019-02-11T09:39:24.544Z,15.35
2019-02-11T09:41:27.822Z,14.15
2019-02-11T09:42:31.397Z,12.85
2019-02-11T09:43:31.943Z,14.93
2019-02-11T09:44:31.509Z,12.20
2019-02-11T09:45:31.191Z,13.50
2019-02-11T09:46:30.982Z,8.50
2019-02-11T09:47:31.464Z,17.23
2019-02-11T09:48:31.121Z,13.75
2019-02-11T09:49:30.758Z,12.73
2019-02-11T09:50:30.338Z,14.07
2019-02-11T09:51:34.086Z,14.25
2019-02-11T09:52:33.726Z,12.90
2019-02-11T09:53:33.354Z,14.23
2019-02-11T09:54:33.805Z,16.05
2019-02-11T09:55:33.440Z,13.98
2019-02-11T09:56:33.902Z,12.18
2019-02-11T09:57:34.651Z,8.93
2019-02-11T09:58:35.127Z,12.55
2019-02-11T09:59:35.973Z,8.65
2019-02-11T10:00:39.038Z,9.45
2019-02-11T10:01:26.680Z,13.20
2019-02-11T10:02:27.238Z,19.10
2019-02-11T10:03:27.966Z,9.30
2019-02-11T10:04:31.296Z,14.68
2019-02-11T10:05:21.944Z,17.67
2019-02-11T10:06:28.978Z,11.83
2019-02-11T10:07:28.859Z,12.90
2019-02-11T10:08:28.580Z,12.55
2019-02-11T10:09:29.043Z,13.40
2019-02-11T10:10:28.703Z,12.70
2019-02-11T10:11:28.486Z,15.98
2019-02-11T10:12:28.848Z,9.20
2019-02-11T10:13:28.605Z,11.70
2019-02-11T10:14:29.208Z,12.98
2019-02-11T10:15:28.971Z,15.32
2019-02-11T10:16:29.378Z,12.80
2019-02-11T10:18:33.569Z,10.68
2019-02-11T10:19:36.964Z,10.53
2019-02-11T10:21:43.240Z,8.55
2019-02-11T10:22:42.995Z,8.85
2019-02-11T10:23:43.576Z,11.95
2019-02-11T10:24:44.085Z,9.58
2019-02-11T10:25:44.645Z,10.00
2019-02-11T10:26:45.142Z,10.08
2019-02-11T10:27:44.737Z,10.93
2019-02-11T10:28:44.447Z,15.05
2019-02-11T10:29:44.058Z,16.73
2019-02-11T10:30:44.379Z,14.75
2019-02-11T10:31:44.032Z,9.68
2019-02-11T10:32:44.477Z,13.18
2019-02-11T10:33:44.919Z,14.80
2019-02-11T10:34:46.395Z,12.00
2019-02-11T10:35:42.357Z,8.68
2019-02-11T10:36:46.745Z,12.23
2019-02-11T10:37:50.752Z,15.40
2019-02-11T10:38:51.756Z,15.03
2019-02-11T10:39:54.353Z,9.20
2019-02-11T10:40:53.917Z,15.00
2019-02-11T10:41:54.529Z,14.13
2019-02-11T10:42:57.221Z,13.68
2019-02-11T10:43:57.688Z,14.13
2019-02-11T10:44:58.199Z,7.83
2019-02-11T10:45:58.724Z,11.30
2019-02-11T10:47:00.562Z,15.20
2019-02-11T10:48:01.394Z,11.15
2019-02-11T10:49:01.486Z,8.90
2019-02-11T10:50:01.014Z,16.85
2019-02-11T10:51:00.587Z,9.83
2019-02-11T10:52:00.157Z,15.45
2019-02-11T10:52:59.815Z,12.58
2019-02-11T10:54:00.376Z,11.80
2019-02-11T10:55:00.652Z,11.00
2019-02-11T10:56:01.024Z,14.83
2019-02-11T10:57:04.462Z,12.05
2019-02-11T10:58:04.279Z,13.83
2019-02-11T10:59:04.758Z,11.68
2019-02-11T11:00:04.319Z,13.53
2019-02-11T11:01:04.816Z,13.03
2019-02-11T11:02:05.389Z,13.48
2019-02-11T11:03:04.999Z,13.05
2019-02-11T11:04:04.660Z,10.05
2019-02-11T11:05:05.169Z,10.70
2019-02-11T11:06:05.534Z,13.50
2019-02-11T11:07:06.047Z,10.00
2019-02-11T11:08:06.589Z,8.45
2019-02-11T11:09:12.731Z,14.60
2019-02-11T11:10:12.479Z,8.43
2019-02-11T11:11:12.031Z,11.35
2019-02-11T11:12:12.415Z,12.82
2019-02-11T11:13:13.017Z,11.33
2019-02-11T11:14:13.432Z,13.75
2019-02-11T11:15:12.932Z,9.53
2019-02-11T11:16:12.588Z,8.90
2019-02-11T11:17:13.078Z,10.60
2019-02-11T11:18:13.432Z,9.43
2019-02-11T11:19:13.164Z,13.18
2019-02-11T11:20:13.518Z,11.22
2019-02-11T11:21:16.594Z,12.63
2019-02-11T11:22:16.539Z,11.20
2019-02-11T11:23:16.627Z,10.58
2019-02-11T11:24:19.623Z,12.68
2019-02-11T11:25:23.146Z,12.43
2019-02-11T11:26:22.675Z,8.08
2019-02-11T11:27:23.152Z,8.38
2019-02-11T11:29:25.446Z,8.38
2019-02-11T11:30:25.965Z,9.30
2019-02-11T11:31:28.723Z,12.25
2019-02-11T11:32:28.355Z,9.43
2019-02-11T11:33:28.055Z,9.98
2019-02-11T11:34:27.674Z,14.78
2019-02-11T11:35:27.187Z,13.53
2019-02-11T11:36:33.525Z,7.47
2019-02-11T11:37:33.245Z,9.73
2019-02-11T11:38:32.951Z,9.70
2019-02-11T11:40:57.492Z,9.75
2019-02-11T11:41:57.448Z,8.28
2019-02-11T11:42:57.112Z,8.58
2019-02-11T11:43:56.776Z,12.00
2019-02-11T11:47:06.587Z,13.88
2019-02-11T11:48:06.932Z,10.93
2019-02-11T11:49:06.585Z,12.20
2019-02-11T11:50:06.103Z,12.18
2019-02-11T11:51:05.677Z,9.43
2019-02-11T11:52:06.136Z,7.83
2019-02-11T11:53:06.709Z,11.55
2019-02-11T11:54:07.197Z,13.05
2019-02-11T11:55:07.750Z,9.38
2019-02-11T11:56:07.670Z,12.10
2019-02-11T11:57:08.164Z,10.55
2019-02-11T11:58:08.665Z,11.00
2019-02-11T11:59:11.616Z,11.80
2019-02-11T12:00:12.054Z,13.28
2019-02-11T12:01:19.086Z,17.70
2019-02-11T12:02:17.968Z,13.72
2019-02-11T12:03:18.501Z,11.85
2019-02-11T12:04:18.072Z,13.58
2019-02-11T12:05:18.537Z,10.50
2019-02-11T12:06:24.905Z,14.18
2019-02-11T12:07:22.661Z,16.87
2019-02-11T12:08:26.224Z,11.68
2019-02-11T12:09:26.819Z,13.65
2019-02-11T12:10:27.322Z,15.20
2019-02-11T12:11:27.839Z,15.05
2019-02-11T12:12:28.316Z,15.40
2019-02-11T12:13:27.962Z,15.68
2019-02-11T12:14:28.531Z,15.10
2019-02-11T12:15:28.274Z,16.45
2019-02-11T12:16:27.875Z,16.23
2019-02-11T12:17:27.611Z,19.27
2019-02-11T12:18:31.444Z,15.78
2019-02-11T12:19:31.450Z,15.78
2019-02-11T12:20:33.771Z,17.40
2019-02-11T12:21:33.551Z,17.20
2019-02-11T12:22:36.259Z,11.93
2019-02-11T12:23:35.935Z,12.70
2019-02-11T12:24:36.338Z,15.53
2019-02-11T12:25:36.098Z,14.13
2019-02-11T12:26:36.472Z,13.03
2019-02-11T12:27:36.008Z,15.72
2019-02-11T12:28:36.521Z,11.85
2019-02-11T12:29:36.088Z,9.20
2019-02-11T12:30:35.650Z,15.05
2019-02-11T12:31:36.189Z,15.40
2019-02-11T12:32:39.781Z,10.10
2019-02-11T12:33:40.139Z,7.40
2019-02-11T12:34:40.635Z,8.28
2019-02-11T12:35:40.208Z,5.65
2019-02-11T12:36:40.672Z,6.42
2019-02-11T12:37:41.242Z,7.55
2019-02-11T12:38:41.724Z,7.65
2019-02-11T12:39:41.332Z,6.40
2019-02-11T12:40:41.836Z,6.62
2019-02-11T12:41:42.462Z,11.05
2019-02-11T12:42:43.095Z,8.73
2019-02-11T12:43:43.426Z,8.45
2019-02-11T12:44:43.983Z,9.28
2019-02-11T12:45:43.784Z,10.35
2019-02-11T12:46:44.178Z,9.40
2019-02-11T12:47:43.872Z,8.58
2019-02-11T12:48:43.571Z,8.63
2019-02-11T12:49:44.036Z,14.40
2019-02-11T12:50:31.663Z,10.78
2019-02-11T12:51:32.273Z,11.93
2019-02-11T12:52:32.731Z,9.75
2019-02-11T12:53:32.299Z,11.63
2019-02-11T12:54:34.839Z,11.53
2019-02-11T12:55:35.482Z,13.13
2019-02-11T12:56:38.194Z,10.28
2019-02-11T12:57:39.047Z,13.00
2019-02-11T12:58:42.275Z,10.70
2019-02-11T12:59:47.026Z,8.38
2019-02-11T13:00:50.879Z,10.38
2019-02-11T13:01:41.992Z,8.83
2019-02-11T13:02:29.519Z,9.38
2019-02-11T13:03:29.805Z,9.33
2019-02-11T13:04:30.284Z,12.73
2019-02-11T13:06:37.234Z,10.85
2019-02-11T13:07:41.245Z,11.88
2019-02-11T13:08:32.365Z,10.28
2019-02-11T13:09:39.368Z,8.00
2019-02-11T13:11:29.892Z,9.38
2019-02-11T13:12:36.926Z,7.95
2019-02-11T13:13:24.568Z,9.48
2019-02-11T13:14:31.635Z,7.67
2019-02-11T13:15:57.842Z,8.78
2019-02-11T13:16:37.162Z,8.20
2019-02-11T13:17:33.756Z,10.15
2019-02-11T13:18:26.681Z,9.58
2019-02-11T13:19:25.004Z,11.12
2019-02-11T13:20:25.235Z,10.15
2019-02-11T13:21:25.807Z,9.13
2019-02-11T13:22:26.288Z,8.05
2019-02-11T13:23:26.767Z,6.92
2019-02-11T13:24:27.135Z,8.45
2019-02-11T13:25:27.484Z,10.15
2019-02-11T13:26:27.096Z,8.30
2019-02-11T13:27:26.609Z,10.55
2019-02-11T13:28:27.099Z,9.50
2019-02-11T13:29:27.512Z,6.37
2019-02-11T13:30:28.046Z,9.43
2019-02-11T13:31:27.713Z,12.63
2019-02-11T13:32:28.257Z,7.80
2019-02-11T13:33:15.849Z,10.60
2019-02-11T13:34:22.954Z,11.73
2019-02-11T13:35:23.672Z,7.97
2019-02-11T13:37:30.754Z,9.88
2019-02-11T13:38:31.204Z,12.20
2019-02-11T13:39:31.717Z,7.40
2019-02-11T13:40:29.894Z,10.30
2019-02-11T13:41:29.820Z,7.03
2019-02-11T13:42:30.317Z,7.87
2019-02-11T13:43:30.859Z,7.70
2019-02-11T13:44:31.233Z,8.75
2019-02-11T13:45:31.836Z,10.72
2019-02-11T13:46:31.477Z,11.53
2019-02-11T13:47:32.137Z,9.48
2019-02-11T13:48:34.250Z,10.48